Isanti, MN (55040)

11:55 PM CDT del 25 Agosto 2016 (GMT -0500)
5 Mi SW of Cambridge on Rum River | | Change Station

Alt. 935 ft 45.52 °N, 93.27 °W | Updated 15 seconds ago

Overcast
Coperto
60.2 °F
Sembra 60.2 °F
N
3.0
Vento Variabile Vento da Ovest
Gusts 7.0 mph

Oggi
Massima -- | Minima -- °F
--% Possibilità di precip.
Ieri
Massima -- | Minima -- °F
Precip. -- in
Pressione 30.09 in
Visibilità 10.0 miglia
Nuvole Coperto 6000 ft
Punto di rugiada 57 °F
Umidità 89%
Piovosità 0.00 in
Spessore del manto nevoso Non disponibile.
6:26 AM 8:02 PM
Ultimo quarto, 38% visible
METAR KCBG 260436Z AUTO 00000KT 10SM OVC060 17/12 A3009 RMK AO2
Pressione 30.09 in
Visibilità 10.0 miglia
Nuvole Coperto 6000 ft
Punto di rugiada 57 °F
Umidità 89%
Piovosità 0.00 in
Spessore del manto nevoso Non disponibile.
6:26 AM 8:02 PM
Ultimo quarto, 38% visible
METAR KCBG 260436Z AUTO 00000KT 10SM OVC060 17/12 A3009 RMK AO2
A tropical disturbance pushing toward the Bahamas, is expected to develop into a tropical depression or storm, and will likely target Florida and the Gulf Coast this weekend into next week.

Right now, the disturbance remains a broad area of low pressure pushing through the Dominican Republic and Haiti, headed toward the southeast Bahamas. Rainfall totals over 3 inches (with locally higher amounts) are expected in Hispañiola, particularly over elevated terrain.

10-Day Weather Forecast

Almanac

Astronomia

Aug. 25, 2016 Alba Tramonto
Ora attuale
Crepuscolo civile
Crepuscolo nautico
Crepuscolo astronomico
Luna
Estensione della luce visibile
Lunghezza del giorno
Tomorrow will be .
, % of the Moon is Illuminated

Gli estremi di oggi

State Highs State Lows

Community

WunderPhotos

Upload Photos

1,935,056 foto caricate!

WunderBlog® & News

Nearby

Qualità dell'aria

  Qualità dell'aria Indice AQ Inquinante
Not available.

Profondità neve

Stazione Profondità Altitudine

Attività sismica

Città  Distanza Mag. Data & Ora
Minimo Magnitudo Mostrato è 2.5.

Temperature delle acque costiere

Località Temperatura

Stations

Stazioni meteo nelle vicinanze

Ubicazione della stazione Temp. Raffreddamento del vento Punto di rugiada Umidità Vento Precip. Alt. Aggiornato Tipo
                   

Watches & Warnings

There are currently no watches in effect.